Time;durP1;ratioP1;P1;durP2;ratioP2;P2;SDS_P1;SDS_P2;PMS_P1;PMS_P2;Temp;Humidity;BMP_temperature;BMP_pressure;BME280_temperature;BME280_humidity;BME280_pressure;Samples;Min_cycle;Max_cycle;Signal;HPM_P1;HPM_P2
2021/09/05 00:01:17;;;;;;;22.77;11.20;;;;;;;2.86;79.43;100555.53;1677426;84;20918;-62
2021/09/05 00:03:43;;;;;;;17.55;11.20;;;;;;;2.85;79.57;100552.50;1699015;83;21001;-62
2021/09/05 00:06:10;;;;;;;16.12;9.88;;;;;;;2.87;79.58;100552.52;1694319;83;21007;-62
2021/09/05 00:08:37;;;;;;;16.50;8.93;;;;;;;2.86;79.57;100553.39;1695421;82;21871;-62
2021/09/05 00:11:03;;;;;;;18.80;9.65;;;;;;;2.82;79.51;100552.52;1696057;83;20944;-62
2021/09/05 00:13:30;;;;;;;14.30;8.37;;;;;;;2.81;79.55;100560.27;1702360;82;20961;-62
2021/09/05 00:15:57;;;;;;;20.62;10.65;;;;;;;2.81;79.70;100558.55;1700507;82;20911;-62
2021/09/05 00:18:23;;;;;;;21.55;11.85;;;;;;;2.81;79.68;100567.58;1693030;82;21470;-62
2021/09/05 00:20:50;;;;;;;19.48;10.93;;;;;;;2.80;79.80;100564.58;1685043;82;21050;-62
2021/09/05 00:23:17;;;;;;;16.77;10.55;;;;;;;2.81;79.81;100562.41;1736444;80;21026;-62
2021/09/05 00:25:44;;;;;;;20.10;10.58;;;;;;;2.81;79.81;100566.28;1738312;80;21510;-62
2021/09/05 00:28:10;;;;;;;18.37;9.65;;;;;;;2.80;79.77;100569.73;1738659;80;20891;-62
2021/09/05 00:30:37;;;;;;;17.80;10.30;;;;;;;2.79;79.77;100571.87;1736452;80;20936;-62
2021/09/05 00:33:07;;;;;;;17.27;10.30;;;;;;;2.80;79.88;100572.31;1736532;80;21105;-62
2021/09/05 00:35:32;;;;;;;19.60;10.35;;;;;;;2.80;79.83;100572.72;1735839;80;20920;-62
2021/09/05 00:37:59;;;;;;;22.40;11.97;;;;;;;2.78;79.91;100571.45;1733680;80;20892;-62
2021/09/05 00:40:25;;;;;;;24.70;11.50;;;;;;;2.77;79.89;100569.71;1734984;80;21459;-62
2021/09/05 00:42:52;;;;;;;32.48;13.38;;;;;;;2.74;79.84;100574.88;1737654;80;21487;-62
2021/09/05 00:45:19;;;;;;;27.00;13.40;;;;;;;2.72;79.90;100577.92;1734453;80;21052;-62
2021/09/05 00:47:46;;;;;;;28.27;14.20;;;;;;;2.69;79.92;100576.20;1738018;80;20951;-62
2021/09/05 00:50:12;;;;;;;25.70;13.85;;;;;;;2.71;80.03;100574.89;1737702;80;20929;-62
2021/09/05 00:52:40;;;;;;;26.45;13.75;;;;;;;2.72;80.02;100570.58;1736575;80;22100;-62
2021/09/05 00:55:08;;;;;;;25.68;12.73;;;;;;;2.71;79.99;100580.48;1736240;80;20912;-62
2021/09/05 00:57:34;;;;;;;;;;;;;;;2.65;79.95;100577.48;1741520;80;21770;-62
2021/09/05 01:00:01;;;;;;;16.27;8.70;;;;;;;2.61;80.10;100582.23;1743058;80;20472;-62
2021/09/05 01:02:27;;;;;;;16.67;8.90;;;;;;;2.60;80.15;100585.21;1735002;80;20889;-62
2021/09/05 01:04:54;;;;;;;18.45;9.05;;;;;;;2.62;80.24;100582.64;1735477;80;20907;-62
2021/09/05 01:07:21;;;;;;;20.82;8.58;;;;;;;2.64;80.26;100583.08;1734521;80;20971;-62
2021/09/05 01:09:48;;;;;;;19.95;7.55;;;;;;;2.64;80.22;100578.36;1739133;80;23029;-62
2021/09/05 01:12:15;;;;;;;15.70;7.12;;;;;;;2.58;80.11;100586.10;1739463;80;21084;-62
2021/09/05 01:14:41;;;;;;;15.05;7.92;;;;;;;2.53;80.11;100582.66;1742370;80;20950;-62
2021/09/05 01:17:11;;;;;;;12.80;7.60;;;;;;;2.49;80.16;100589.95;1738054;80;21486;-62
2021/09/05 01:19:38;;;;;;;18.98;8.10;;;;;;;2.42;80.17;100584.80;1735942;80;20935;-62
2021/09/05 01:22:05;;;;;;;13.05;7.60;;;;;;;2.41;80.29;100586.97;1736925;80;22530;-62
2021/09/05 01:24:31;;;;;;;13.58;7.55;;;;;;;2.42;80.35;100589.96;1734880;80;21541;-62
2021/09/05 01:26:58;;;;;;;13.20;7.42;;;;;;;2.41;80.41;100592.13;1681797;83;20886;-62
2021/09/05 01:29:25;;;;;;;18.82;8.15;;;;;;;2.42;80.45;100588.67;1746179;80;20922;-62
2021/09/05 01:31:55;;;;;;;19.30;8.80;;;;;;;2.45;80.52;100596.84;1683394;83;20916;-62
2021/09/05 01:34:24;;;;;;;13.90;7.85;;;;;;;2.48;80.54;100599.84;1707127;81;21115;-62
2021/09/05 01:36:54;;;;;;;15.05;7.70;;;;;;;2.45;80.42;100596.40;1660594;84;20871;-62
2021/09/05 01:39:22;;;;;;;21.70;8.53;;;;;;;2.39;80.42;100601.56;1731249;80;21465;-62
2021/09/05 01:41:49;;;;;;;15.63;8.20;;;;;;;2.39;80.45;100598.98;1735909;80;20931;-62
2021/09/05 01:44:20;;;;;;;18.32;8.83;;;;;;;2.39;80.57;100605.43;1740066;80;20961;-62
2021/09/05 01:46:48;;;;;;;21.17;9.23;;;;;;;2.40;80.61;100603.27;1733407;80;21944;-62
2021/09/05 01:49:15;;;;;;;20.48;9.15;;;;;;;2.41;80.66;100605.00;1744167;80;20942;-62
2021/09/05 01:51:41;;;;;;;21.05;10.38;;;;;;;2.41;80.65;100607.59;1734372;80;20930;-62
2021/09/05 01:54:08;;;;;;;18.30;9.97;;;;;;;2.41;80.62;100610.16;1740960;80;20951;-62
2021/09/05 01:56:35;;;;;;;24.00;10.63;;;;;;;2.38;80.63;100617.90;1740535;80;20946;-62
2021/09/05 01:59:05;;;;;;;24.90;12.10;;;;;;;2.37;80.63;100611.00;1744668;80;21837;-62
2021/09/05 02:01:32;;;;;;;19.92;11.25;;;;;;;2.35;80.59;100617.02;1737411;80;20975;-62
2021/09/05 02:04:00;;;;;;;24.63;10.83;;;;;;;2.34;80.61;100613.58;1676017;83;21074;-62
2021/09/05 02:06:27;;;;;;;20.25;10.13;;;;;;;2.33;80.68;100615.74;1672189;83;20988;-62
2021/09/05 02:08:56;;;;;;;20.92;9.90;;;;;;;2.31;80.65;100616.16;1738090;80;21464;-62
2021/09/05 02:11:24;;;;;;;20.37;9.75;;;;;;;2.28;80.65;100609.72;1738250;80;21102;-62
2021/09/05 02:13:51;;;;;;;20.40;9.63;;;;;;;2.26;80.71;100616.58;1731662;80;21357;-62
2021/09/05 02:16:18;;;;;;;16.40;9.48;;;;;;;2.21;80.69;100618.28;1739199;80;20902;-62
2021/09/05 02:18:45;;;;;;;16.95;9.45;;;;;;;2.16;80.76;100620.02;1684611;83;20958;-62
2021/09/05 02:21:11;;;;;;;15.07;8.83;;;;;;;2.18;80.92;100619.58;1696542;82;21599;-62
2021/09/05 02:23:39;;;;;;;13.28;7.53;;;;;;;2.18;80.89;100622.16;1704522;82;22135;-62
2021/09/05 02:26:06;;;;;;;12.58;6.75;;;;;;;2.18;80.86;100623.44;1699698;82;20965;-62
2021/09/05 02:28:32;;;;;;;11.85;6.95;;;;;;;2.19;80.92;100622.60;1700567;82;21465;-62
2021/09/05 02:30:59;;;;;;;15.05;7.28;;;;;;;2.19;80.97;100621.31;1696915;82;21469;-62
2021/09/05 02:33:26;;;;;;;10.47;7.27;;;;;;;2.18;80.96;100617.00;1696176;82;20914;-62
2021/09/05 02:35:53;;;;;;;13.17;6.37;;;;;;;2.15;80.88;100626.02;1694712;82;21829;-62
2021/09/05 02:38:19;;;;;;;10.67;5.90;;;;;;;2.11;80.89;100623.02;1700918;82;20882;-62
2021/09/05 02:40:55;;;;;;;13.08;6.58;;;;;;;2.11;80.98;100617.86;1697790;82;20895;-62
2021/09/05 02:43:22;;;;;;;11.55;6.40;;;;;;;2.12;81.08;100624.72;1696512;82;21482;-62
2021/09/05 02:45:48;;;;;;;9.67;5.77;;;;;;;2.11;81.03;100623.02;1696338;82;21496;-62
2021/09/05 02:48:15;;;;;;;12.88;6.17;;;;;;;2.10;81.08;100630.29;1700940;82;21064;-62
2021/09/05 02:50:51;;;;;;;9.93;6.03;;;;;;;2.08;81.03;100628.16;1700591;82;20970;-62
2021/09/05 02:53:18;;;;;;;13.85;6.15;;;;;;;2.08;81.11;100635.89;1694148;82;20992;-62
2021/09/05 02:55:44;;;;;;;14.18;6.65;;;;;;;2.09;81.10;100632.45;1708457;82;21462;-62
2021/09/05 02:58:11;;;;;;;12.82;7.87;;;;;;;2.06;81.10;100635.02;1698414;82;20968;-62
2021/09/05 03:00:38;;;;;;;15.18;7.37;;;;;;;2.07;81.21;100631.58;1700732;82;21222;-62
2021/09/05 03:03:04;;;;;;;17.92;7.47;;;;;;;2.09;81.34;100630.73;1702850;82;20906;-62
2021/09/05 03:05:31;;;;;;;17.85;7.90;;;;;;;2.12;81.30;100635.03;1698525;82;20997;-61
2021/09/05 03:07:57;;;;;;;17.52;8.25;;;;;;;2.09;81.27;100635.88;1705589;82;20959;-62
2021/09/05 03:10:24;;;;;;;15.72;8.03;;;;;;;2.10;81.36;100637.63;1707600;82;20907;-62
2021/09/05 03:12:51;;;;;;;16.55;8.23;;;;;;;2.17;81.52;100643.63;1694142;83;21596;-62
2021/09/05 03:15:17;;;;;;;19.87;10.60;;;;;;;2.21;81.51;100645.34;1697937;83;20923;-62
2021/09/05 03:17:44;;;;;;;24.73;11.43;;;;;;;2.28;81.57;100640.64;1692656;83;20992;-62
2021/09/05 03:20:11;;;;;;;31.27;14.23;;;;;;;2.30;81.54;100645.38;1712092;82;21448;-62
2021/09/05 03:22:38;;;;;;;25.72;13.00;;;;;;;2.34;81.59;100649.66;1690466;82;21006;-61
2021/09/05 03:25:06;;;;;;;24.77;11.95;;;;;;;2.41;81.65;100651.41;1700151;82;21457;-62
2021/09/05 03:27:33;;;;;;;19.12;9.88;;;;;;;2.43;81.62;100648.38;1697615;82;21597;-62
2021/09/05 03:29:59;;;;;;;18.27;9.50;;;;;;;2.44;81.54;100653.98;1701683;82;20914;-62
2021/09/05 03:32:26;;;;;;;22.32;9.65;;;;;;;2.50;81.74;100650.98;1701684;82;20928;-62
2021/09/05 03:34:53;;;;;;;17.87;8.90;;;;;;;2.56;81.85;100654.84;1698279;82;21016;-62
2021/09/05 03:37:19;;;;;;;15.60;8.50;;;;;;;2.64;81.98;100658.29;1701185;82;21284;-62
2021/09/05 03:39:46;;;;;;;16.15;6.92;;;;;;;2.69;82.02;100641.10;1696872;82;21436;-62
2021/09/05 03:42:12;;;;;;;13.10;6.87;;;;;;;2.78;81.99;100661.72;1700515;82;20923;-62
2021/09/05 03:44:39;;;;;;;15.70;7.90;;;;;;;2.82;81.98;100654.39;1732579;79;20985;-62
2021/09/05 03:47:06;;;;;;;16.67;8.53;;;;;;;2.86;82.01;100652.26;1734090;80;20944;-62
2021/09/05 03:49:32;;;;;;;18.52;7.90;;;;;;;2.94;82.12;100653.95;1745113;80;21049;-61
2021/09/05 03:51:59;;;;;;;22.30;9.27;;;;;;;2.96;81.95;100657.40;1742954;80;21455;-62
2021/09/05 03:54:26;;;;;;;15.28;8.88;;;;;;;3.02;81.95;100654.80;1740263;80;22003;-62
2021/09/05 03:56:52;;;;;;;18.33;7.97;;;;;;;3.02;81.92;100659.97;1739843;79;21486;-62
2021/09/05 03:59:19;;;;;;;15.90;8.75;;;;;;;3.02;81.94;100656.09;1736898;80;20954;-62
2021/09/05 04:01:46;;;;;;;19.82;8.45;;;;;;;3.08;82.10;100662.53;1737487;80;21022;-63
2021/09/05 04:04:12;;;;;;;16.10;8.28;;;;;;;3.12;82.06;100664.27;1743223;80;21454;-62
2021/09/05 04:06:39;;;;;;;19.95;8.13;;;;;;;3.12;81.95;100666.84;1743378;80;20963;-62
2021/09/05 04:09:09;;;;;;;14.83;8.28;;;;;;;3.09;81.87;100674.59;1739481;80;21429;-62
2021/09/05 04:11:36;;;;;;;15.70;6.97;;;;;;;3.10;81.90;100680.17;1739955;80;20876;-61
2021/09/05 04:14:03;;;;;;;14.78;7.70;;;;;;;3.13;81.92;100672.42;1741723;80;21093;-62
2021/09/05 04:16:30;;;;;;;18.30;7.55;;;;;;;3.12;82.01;100678.02;1748191;80;20899;-62
2021/09/05 04:18:57;;;;;;;20.92;8.15;;;;;;;3.20;82.18;100675.43;1750215;80;20916;-62
2021/09/05 04:21:23;;;;;;;11.43;6.47;;;;;;;3.26;82.12;100678.00;1761306;79;20903;-62
2021/09/05 04:23:50;;;;;;;13.87;6.87;;;;;;;3.30;82.07;100681.42;1767038;79;20904;-62
2021/09/05 04:26:17;;;;;;;14.15;7.03;;;;;;;3.46;82.38;100690.00;1765094;79;21002;-62
2021/09/05 04:28:43;;;;;;;15.18;7.00;;;;;;;4.21;83.19;100693.12;1763227;79;20997;-62
2021/09/05 04:31:10;;;;;;;18.57;8.05;;;;;;;5.22;83.21;100687.59;1767790;79;20930;-62
2021/09/05 04:33:36;;;;;;;15.48;6.80;;;;;;;5.92;82.22;100684.64;1767732;79;20919;-62
2021/09/05 04:36:03;;;;;;;16.80;7.35;;;;;;;6.70;82.37;100691.79;1766592;79;20970;-62
2021/09/05 04:38:30;;;;;;;12.15;7.22;;;;;;;7.68;81.99;100682.23;1766576;79;21040;-62
2021/09/05 04:40:57;;;;;;;11.57;6.17;;;;;;;8.35;80.89;100683.00;1769015;79;20907;-62
2021/09/05 04:43:24;;;;;;;13.73;5.77;;;;;;;8.94;80.32;100684.64;1765317;79;20941;-61
2021/09/05 04:45:54;;;;;;;21.87;5.50;;;;;;;9.58;79.80;100686.84;1763046;79;20926;-62
2021/09/05 04:48:20;;;;;;;12.28;6.53;;;;;;;10.20;79.38;100679.85;1765150;79;21464;-62
2021/09/05 04:50:47;;;;;;;7.65;4.72;;;;;;;10.82;79.32;100682.25;1764687;79;21092;-62
2021/09/05 04:53:14;;;;;;;10.30;4.23;;;;;;;11.30;79.02;100682.80;1765485;79;21439;-62
2021/09/05 04:55:40;;;;;;;5.97;4.35;;;;;;;11.75;78.70;100680.75;1761607;79;20925;-62
2021/09/05 04:58:07;;;;;;;10.90;5.40;;;;;;;12.13;78.24;100682.42;1764912;79;20914;-62
2021/09/05 05:00:37;;;;;;;7.30;5.30;;;;;;;12.38;77.90;100682.76;1762375;79;20942;-62
2021/09/05 05:03:03;;;;;;;7.42;4.58;;;;;;;12.76;77.62;100691.70;1756238;79;21975;-62
2021/09/05 05:05:30;;;;;;;9.33;5.83;;;;;;;13.28;77.35;100681.70;1755658;79;20911;-62
2021/09/05 05:07:56;;;;;;;10.50;7.28;;;;;;;13.61;77.15;100692.49;1760486;79;20953;-60
2021/09/05 05:10:23;;;;;;;13.35;7.80;;;;;;;13.86;76.45;100687.43;1762381;79;20923;-60
2021/09/05 05:12:50;;;;;;;11.55;6.33;;;;;;;14.05;76.79;100684.35;1765666;79;21099;-60
2021/09/05 05:15:16;;;;;;;12.00;7.35;;;;;;;14.37;76.71;100695.14;1762539;79;21003;-60
2021/09/05 05:17:43;;;;;;;14.87;8.58;;;;;;;14.68;77.14;100695.02;1746537;79;20929;-60
2021/09/05 05:20:12;;;;;;;15.72;7.08;;;;;;;14.68;76.22;100698.96;1767792;79;20901;-59
2021/09/05 05:22:39;;;;;;;18.20;9.43;;;;;;;14.15;75.56;100704.49;1713753;81;21339;-59
2021/09/05 05:25:08;;;;;;;15.48;9.13;;;;;;;13.77;75.48;100705.77;1672362;83;20889;-59
2021/09/05 05:27:34;;;;;;;13.88;7.85;;;;;;;13.26;75.25;100709.76;1680580;83;21035;-59
2021/09/05 05:30:01;;;;;;;12.60;7.35;;;;;;;12.79;75.80;100711.70;1653693;84;20936;-60
2021/09/05 05:32:28;;;;;;;17.02;7.30;;;;;;;12.48;75.95;100710.30;1703529;81;20958;-59
2021/09/05 05:34:54;;;;;;;14.30;7.78;;;;;;;12.56;76.91;100709.55;1707060;81;21496;-60
2021/09/05 05:37:21;;;;;;;15.00;7.22;;;;;;;13.12;77.34;100707.68;1710033;81;20977;-60
2021/09/05 05:39:48;;;;;;;15.95;6.83;;;;;;;13.99;77.98;100702.17;1711346;81;21062;-60
2021/09/05 05:42:14;;;;;;;10.35;7.00;;;;;;;14.97;77.66;100702.30;1717937;81;20871;-60
2021/09/05 05:44:41;;;;;;;14.73;7.20;;;;;;;15.47;76.26;100707.71;1707203;81;20961;-60
2021/09/05 05:47:07;;;;;;;12.30;7.03;;;;;;;15.80;76.55;100715.19;1704460;81;20950;-59
2021/09/05 05:49:35;;;;;;;14.70;7.60;;;;;;;16.33;76.38;100716.69;1718154;81;20883;-59
2021/09/05 05:52:03;;;;;;;10.78;6.10;;;;;;;16.69;75.36;100712.94;1719119;81;21066;-59
2021/09/05 05:54:29;;;;;;;13.20;6.65;;;;;;;16.89;74.97;100718.89;1711338;81;21017;-59
2021/09/05 05:56:56;;;;;;;11.03;6.42;;;;;;;16.99;74.22;100717.39;1709868;81;21395;-60
2021/09/05 05:59:23;;;;;;;23.07;7.47;;;;;;;17.06;74.04;100716.11;1720851;81;20898;-60
2021/09/05 06:01:49;;;;;;;21.07;8.83;;;;;;;17.46;74.62;100711.09;1718860;81;20895;-59
2021/09/05 06:04:16;;;;;;;17.98;6.53;;;;;;;17.66;73.33;100718.66;1715397;81;21062;-59
2021/09/05 06:06:42;;;;;;;17.42;8.28;;;;;;;18.00;74.06;100716.60;1709039;81;20965;-59
2021/09/05 06:09:09;;;;;;;14.65;7.55;;;;;;;18.10;73.37;100709.81;1703755;81;21461;-59
2021/09/05 06:11:36;;;;;;;14.83;7.17;;;;;;;17.99;73.11;100716.23;1668137;84;20943;-60
2021/09/05 06:14:02;;;;;;;22.40;6.92;;;;;;;17.92;73.47;100718.87;1657115;84;20925;-60
2021/09/05 06:16:29;;;;;;;21.85;7.28;;;;;;;17.95;72.75;100720.00;1715121;81;21513;-59
2021/09/05 06:18:56;;;;;;;18.48;6.87;;;;;;;17.95;72.60;100716.03;1711828;81;21409;-59
2021/09/05 06:21:22;;;;;;;;;;;;;;;18.05;72.06;100715.84;1717950;81;20977;-59
2021/09/05 06:23:49;;;;;;;36.90;7.50;;;;;;;17.98;70.89;100723.80;1687626;83;20443;-60
2021/09/05 06:26:16;;;;;;;69.85;10.40;;;;;;;17.95;71.34;100723.97;1747952;80;21506;-59
2021/09/05 06:28:43;;;;;;;18.23;6.75;;;;;;;17.99;71.26;100728.13;1733053;80;21050;-60
2021/09/05 06:31:09;;;;;;;11.70;6.67;;;;;;;17.99;71.00;100725.48;1740872;80;20912;-60
2021/09/05 06:33:36;;;;;;;12.82;5.62;;;;;;;18.00;70.70;100724.53;1748297;80;21635;-60
2021/09/05 06:36:03;;;;;;;6.50;4.62;;;;;;;18.11;71.12;100726.03;1753067;80;20988;-60
2021/09/05 06:38:29;;;;;;;7.58;5.30;;;;;;;18.37;71.14;100731.45;1756876;80;20954;-60
2021/09/05 06:40:57;;;;;;;11.65;3.87;;;;;;;18.36;70.33;100731.58;1764475;80;21096;-60
2021/09/05 06:43:23;;;;;;;7.55;3.00;;;;;;;18.40;70.25;100733.06;1752172;80;20900;-60
2021/09/05 06:45:50;;;;;;;4.33;2.45;;;;;;;18.32;69.97;100735.73;1763035;80;20947;-60
2021/09/05 06:48:16;;;;;;;5.22;2.00;;;;;;;18.48;70.19;100731.62;1762196;80;20868;-60
2021/09/05 06:50:43;;;;;;;3.20;1.60;;;;;;;18.55;67.94;100738.23;1761156;80;20902;-60
2021/09/05 06:53:09;;;;;;;2.60;1.82;;;;;;;18.20;67.01;100746.22;1745774;80;21901;-60
2021/09/05 06:55:36;;;;;;;2.35;1.60;;;;;;;18.10;68.78;100746.81;1748741;80;21447;-60
2021/09/05 06:58:03;;;;;;;3.45;1.85;;;;;;;18.27;69.74;100739.62;1756178;80;20912;-60
2021/09/05 07:00:29;;;;;;;2.67;1.60;;;;;;;18.37;68.08;100745.16;1741158;80;20940;-60
2021/09/05 07:02:59;;;;;;;3.45;1.80;;;;;;;18.17;67.59;100753.03;1731122;80;21431;-60
2021/09/05 07:05:26;;;;;;;3.37;1.00;;;;;;;18.10;66.88;100754.73;1738053;80;21057;-60
2021/09/05 07:07:52;;;;;;;1.92;1.20;;;;;;;17.68;65.75;100752.44;1744930;80;21481;-60
2021/09/05 07:10:19;;;;;;;1.75;1.22;;;;;;;17.44;66.16;100763.14;1733146;80;20905;-60
2021/09/05 07:12:46;;;;;;;1.95;1.42;;;;;;;17.15;65.66;100760.42;1730581;80;20963;-60
2021/09/05 07:15:12;;;;;;;4.62;1.37;;;;;;;16.75;66.10;100758.73;1736632;80;21856;-59
2021/09/05 07:17:39;;;;;;;1.90;1.40;;;;;;;16.29;65.53;100759.95;1745689;80;20928;-60
2021/09/05 07:20:07;;;;;;;2.05;1.40;;;;;;;15.86;64.32;100760.94;1743638;80;20966;-60
2021/09/05 07:22:34;;;;;;;2.05;1.10;;;;;;;15.57;65.45;100761.12;1735880;80;20904;-59
2021/09/05 07:25:02;;;;;;;1.62;1.10;;;;;;;15.41;65.98;100764.99;1740870;80;20915;-60
2021/09/05 07:27:31;;;;;;;2.85;1.20;;;;;;;15.30;65.77;100769.94;1736903;80;21832;-59
2021/09/05 07:29:58;;;;;;;2.08;1.17;;;;;;;15.19;65.82;100773.58;1740509;80;21967;-59
2021/09/05 07:32:24;;;;;;;2.42;1.35;;;;;;;14.93;63.38;100769.61;1751546;80;20928;-59
2021/09/05 07:34:51;;;;;;;2.40;1.57;;;;;;;14.89;65.49;100768.87;1751059;80;20895;-59
2021/09/05 07:37:19;;;;;;;1.57;1.07;;;;;;;14.89;64.95;100764.94;1741960;80;20914;-60
2021/09/05 07:39:46;;;;;;;1.67;1.20;;;;;;;14.99;65.47;100766.67;1742044;80;21250;-60
2021/09/05 07:42:13;;;;;;;1.45;1.07;;;;;;;15.11;65.47;100763.89;1733197;80;21039;-60
2021/09/05 07:44:40;;;;;;;3.90;1.40;;;;;;;15.14;64.91;100767.69;1748281;80;21091;-61
2021/09/05 07:47:06;;;;;;;1.47;1.17;;;;;;;15.18;64.50;100770.56;1751787;80;21933;-61
2021/09/05 07:49:33;;;;;;;0.95;0.70;;;;;;;15.19;65.09;100774.89;1742612;80;20970;-61
2021/09/05 07:52:00;;;;;;;1.12;0.62;;;;;;;15.36;65.67;100774.89;1733801;80;20975;-61
2021/09/05 07:54:26;;;;;;;1.50;0.78;;;;;;;15.59;65.46;100779.45;1741672;80;21965;-61
2021/09/05 07:56:53;;;;;;;1.57;0.80;;;;;;;15.72;65.41;100785.83;1738803;80;20985;-60
2021/09/05 07:59:19;;;;;;;1.27;0.93;;;;;;;15.75;64.92;100784.35;1736532;80;20973;-61
2021/09/05 08:01:46;;;;;;;1.00;0.67;;;;;;;15.76;64.93;100790.47;1733576;80;21086;-61
2021/09/05 08:04:13;;;;;;;2.00;0.73;;;;;;;15.85;64.77;100789.53;1741733;80;20931;-60
2021/09/05 08:06:39;;;;;;;1.30;0.80;;;;;;;16.02;64.88;100782.50;1738473;80;21041;-60
2021/09/05 08:09:06;;;;;;;2.33;1.00;;;;;;;16.08;63.80;100790.11;1738752;80;21395;-60
2021/09/05 08:11:33;;;;;;;1.82;0.90;;;;;;;15.80;62.52;100788.92;1745304;80;21520;-60
2021/09/05 08:14:01;;;;;;;1.32;0.62;;;;;;;15.59;62.95;100789.98;1742930;80;21196;-60
2021/09/05 08:16:28;;;;;;;1.87;0.72;;;;;;;15.64;63.69;100789.28;1752303;80;20946;-61
2021/09/05 08:18:55;;;;;;;0.85;0.50;;;;;;;15.77;63.66;100791.72;1747088;80;21733;-61
2021/09/05 08:21:22;;;;;;;0.62;0.40;;;;;;;15.79;63.21;100795.56;1743207;80;20990;-60
2021/09/05 08:23:49;;;;;;;1.10;0.50;;;;;;;15.73;63.08;100795.42;1740356;80;22291;-61
2021/09/05 08:26:25;;;;;;;3.30;0.65;;;;;;;15.70;62.62;100806.11;1745970;80;20894;-61
2021/09/05 08:28:52;;;;;;;1.35;0.42;;;;;;;15.62;62.63;100806.46;1735020;80;20935;-60
2021/09/05 08:31:20;;;;;;;0.70;0.50;;;;;;;15.65;62.23;100804.14;1745271;80;21069;-59
2021/09/05 08:33:46;;;;;;;1.05;0.47;;;;;;;15.64;62.06;100806.40;1744571;80;20976;-60
2021/09/05 08:36:14;;;;;;;1.20;0.80;;;;;;;15.73;61.96;100811.22;1745467;80;20975;-60
2021/09/05 08:38:40;;;;;;;2.05;0.70;;;;;;;15.86;62.09;100812.30;1744288;80;20916;-60
2021/09/05 08:41:10;;;;;;;1.32;0.57;;;;;;;15.95;61.68;100820.66;1742961;80;21508;-60
2021/09/05 08:43:37;;;;;;;0.82;0.50;;;;;;;15.93;61.32;100815.92;1740917;80;21832;-61
2021/09/05 08:46:05;;;;;;;2.72;0.75;;;;;;;16.02;61.52;100814.11;1738455;80;21454;-62
2021/09/05 08:48:42;;;;;;;1.55;0.50;;;;;;;16.08;61.17;100813.81;1744439;80;20904;-61
2021/09/05 08:51:14;;;;;;;1.62;0.98;;;;;;;16.07;60.81;100818.68;1707725;81;20987;-61
2021/09/05 08:53:41;;;;;;;1.22;0.60;;;;;;;15.97;60.60;100816.16;1708884;81;21499;-61
2021/09/05 08:56:08;;;;;;;;;;;;;;;16.01;60.46;100826.44;1717934;81;21822;-61
2021/09/05 08:58:34;;;;;;;0.60;0.40;;;;;;;16.08;60.12;100825.67;1712390;81;20159;-62
2021/09/05 09:01:16;;;;;;;1.47;0.70;;;;;;;16.16;60.23;100819.53;1715049;81;20950;-61
2021/09/05 09:03:42;;;;;;;0.82;0.60;;;;;;;16.22;59.81;100816.56;1713004;81;20954;-62
2021/09/05 09:06:10;;;;;;;1.47;0.60;;;;;;;16.18;59.48;100818.96;1716915;81;20975;-61
2021/09/05 09:08:36;;;;;;;;;;;;;;;16.16;59.59;100823.92;1697291;81;21359;-62
2021/09/05 09:11:03;;;;;;;2.43;0.60;;;;;;;16.47;59.57;100807.34;1718713;81;20525;-61
2021/09/05 09:13:38;;;;;;;1.35;0.70;;;;;;;16.47;59.57;100807.34;1717861;81;21080;-61
2021/09/05 09:16:14;;;;;;;1.00;0.70;;;;;;;16.74;59.20;100829.53;1725692;81;20930;-62
2021/09/05 09:18:42;;;;;;;0.75;0.50;;;;;;;16.84;59.01;100831.72;1714752;81;21424;-61
2021/09/05 09:21:12;;;;;;;0.95;0.60;;;;;;;16.98;58.34;100831.79;1718297;81;21008;-62
2021/09/05 09:23:40;;;;;;;1.17;0.70;;;;;;;17.03;58.59;100832.39;1710644;81;21043;-61
2021/09/05 09:26:13;;;;;;;0.95;0.50;;;;;;;17.08;58.32;100827.67;1719180;81;20983;-61
2021/09/05 09:28:44;;;;;;;1.47;0.80;;;;;;;17.11;58.28;100826.65;1731981;81;21504;-61
2021/09/05 09:31:20;;;;;;;1.25;0.70;;;;;;;17.23;58.69;100834.73;1741054;80;20938;-62
2021/09/05 09:33:52;;;;;;;1.85;0.70;;;;;;;17.33;58.41;100827.59;1748702;80;21043;-61
2021/09/05 09:36:25;;;;;;;1.95;1.05;;;;;;;17.37;58.01;100825.17;1748179;80;20891;-61
2021/09/05 09:39:06;;;;;;;1.25;0.57;;;;;;;17.43;58.30;100816.89;1741063;80;21088;-61
2021/09/05 09:41:41;;;;;;;1.75;0.80;;;;;;;17.52;57.98;100822.09;1749787;80;20922;-61
2021/09/05 09:44:11;;;;;;;0.80;0.60;;;;;;;17.45;57.77;100815.02;1749336;80;20942;-61
2021/09/05 09:46:39;;;;;;;1.42;0.80;;;;;;;17.50;57.62;100818.22;1752269;80;21045;-61
2021/09/05 09:49:12;;;;;;;2.58;1.17;;;;;;;17.54;57.60;100815.79;1748491;80;20960;-61
2021/09/05 09:51:40;;;;;;;1.30;0.60;;;;;;;17.61;57.47;100814.47;1696567;81;20962;-60
2021/09/05 09:54:08;;;;;;;2.58;0.70;;;;;;;17.74;57.08;100813.77;1755146;80;21461;-61
2021/09/05 09:56:35;;;;;;;1.32;0.70;;;;;;;18.01;57.25;100810.81;1748893;80;20980;-61
2021/09/05 09:59:06;;;;;;;0.72;0.42;;;;;;;18.18;56.83;100806.28;1718754;81;21140;-60
2021/09/05 10:01:34;;;;;;;1.57;0.60;;;;;;;18.31;56.57;100811.17;1754760;80;20951;-61
2021/09/05 10:04:02;;;;;;;0.80;0.60;;;;;;;18.32;56.52;100808.92;1747175;80;20994;-60
2021/09/05 10:06:32;;;;;;;1.80;0.60;;;;;;;18.28;56.32;100811.36;1755263;80;21049;-61
2021/09/05 10:09:05;;;;;;;0.57;0.45;;;;;;;18.29;56.29;100817.05;1759290;80;21560;-61
2021/09/05 10:11:33;;;;;;;0.70;0.50;;;;;;;18.15;56.00;100814.38;1748731;80;21564;-61
2021/09/05 10:14:00;;;;;;;0.90;0.70;;;;;;;18.01;54.80;100818.73;1724253;81;20986;-60
2021/09/05 10:16:28;;;;;;;2.35;0.88;;;;;;;17.61;55.28;100821.07;1749616;80;21111;-60
2021/09/05 10:18:56;;;;;;;;;;;;;;;17.42;55.92;100816.49;1757097;80;21454;-61
2021/09/05 10:21:23;;;;;;;0.53;0.40;;;;;;;17.29;54.73;100820.33;1748809;80;20158;-60
2021/09/05 10:23:56;;;;;;;1.00;0.60;;;;;;;16.97;55.58;100811.60;1733374;81;21053;-60
2021/09/05 10:26:24;;;;;;;0.50;0.30;;;;;;;16.76;55.62;100813.20;1743564;81;21453;-60
2021/09/05 10:28:58;;;;;;;0.80;0.50;;;;;;;16.70;55.84;100809.55;1743170;80;20939;-61
2021/09/05 10:31:31;;;;;;;0.68;0.50;;;;;;;16.63;55.43;100810.81;1734298;81;20950;-61
2021/09/05 10:33:59;;;;;;;1.55;0.55;;;;;;;16.53;55.48;100799.09;1736849;81;21459;-61
2021/09/05 10:36:27;;;;;;;1.37;0.70;;;;;;;16.42;55.48;100804.10;1736313;81;21800;-60
2021/09/05 10:39:06;;;;;;;1.50;0.75;;;;;;;16.38;55.68;100802.55;1745503;81;20966;-61
2021/09/05 10:41:49;;;;;;;0.90;0.60;;;;;;;16.67;55.94;100799.18;1731003;80;21449;-61
2021/09/05 10:44:16;;;;;;;0.95;0.60;;;;;;;16.97;55.60;100799.73;1743774;81;20948;-61
2021/09/05 10:46:51;;;;;;;1.20;1.02;;;;;;;16.98;55.43;100808.89;1740999;80;20985;-61
2021/09/05 10:49:38;;;;;;;2.25;0.78;;;;;;;17.20;55.42;100796.64;1738339;81;21727;-61
2021/09/05 10:52:05;;;;;;;0.85;0.65;;;;;;;17.50;55.53;100794.45;1738732;81;21933;-61
2021/09/05 10:54:36;;;;;;;1.85;0.78;;;;;;;17.80;55.44;100793.61;1753854;80;21429;-60
2021/09/05 10:57:03;;;;;;;2.10;0.78;;;;;;;17.99;55.27;100788.91;1748048;80;20942;-61
2021/09/05 10:59:35;;;;;;;1.22;0.85;;;;;;;18.23;55.09;100793.61;1751646;80;21429;-61
2021/09/05 11:02:04;;;;;;;4.87;0.78;;;;;;;18.36;54.72;100783.97;1755366;80;21086;-61
2021/09/05 11:04:44;;;;;;;2.25;0.85;;;;;;;18.43;54.61;100782.66;1756984;80;20926;-61
2021/09/05 11:07:21;;;;;;;1.45;0.85;;;;;;;18.49;54.48;100778.77;1754629;80;21007;-61
2021/09/05 11:09:48;;;;;;;4.05;1.20;;;;;;;18.58;54.70;100785.27;1734675;80;20937;-61
2021/09/05 11:12:23;;;;;;;2.10;0.70;;;;;;;18.70;54.21;100780.50;1746145;80;20968;-61
2021/09/05 11:14:53;;;;;;;1.42;0.70;;;;;;;18.81;54.37;100774.08;1743165;80;21207;-61
2021/09/05 11:17:24;;;;;;;1.25;0.70;;;;;;;18.93;54.43;100770.66;1751112;80;21426;-61
2021/09/05 11:20:12;;;;;;;1.05;0.60;;;;;;;18.84;53.89;100773.88;1748517;79;20936;-61
2021/09/05 11:22:44;;;;;;;1.17;0.60;;;;;;;18.50;53.51;100776.02;1742916;80;20937;-60
2021/09/05 11:25:18;;;;;;;3.40;0.65;;;;;;;18.00;52.77;100777.38;1742424;80;20958;-61
2021/09/05 11:27:55;;;;;;;1.62;0.47;;;;;;;17.50;53.58;100781.25;1759210;79;21077;-61